createdAt,value
2022-11-20T00:00:51.367Z,-4.65
2022-11-20T00:01:51.421Z,-4.77
2022-11-20T00:02:51.356Z,-4.86
2022-11-20T00:03:51.370Z,-4.86
2022-11-20T00:04:51.349Z,-4.92
2022-11-20T00:05:51.333Z,-5.04
2022-11-20T00:06:51.333Z,-4.96
2022-11-20T00:07:51.312Z,-4.96
2022-11-20T00:08:51.302Z,-4.89
2022-11-20T00:09:51.298Z,-4.97
2022-11-20T00:10:52.283Z,-4.97
2022-11-20T00:11:51.276Z,-5.07
2022-11-20T00:12:51.268Z,-4.96
2022-11-20T00:13:51.250Z,-4.81
2022-11-20T00:14:52.263Z,-4.77
2022-11-20T00:15:51.249Z,-4.79
2022-11-20T00:16:51.269Z,-4.81
2022-11-20T00:17:51.227Z,-4.77
2022-11-20T00:18:51.252Z,-4.95
2022-11-20T00:19:51.237Z,-4.78
2022-11-20T00:20:51.209Z,-4.78
2022-11-20T00:21:51.180Z,-4.81
2022-11-20T00:22:51.166Z,-4.71
2022-11-20T00:23:51.158Z,-4.72
2022-11-20T00:24:51.172Z,-4.67
2022-11-20T00:25:51.165Z,-4.60
2022-11-20T00:26:51.140Z,-4.71
2022-11-20T00:27:51.117Z,-4.68
2022-11-20T00:28:51.131Z,-4.58
2022-11-20T00:29:51.104Z,-4.79
2022-11-20T00:30:51.127Z,-4.79
2022-11-20T00:31:51.092Z,-4.63
2022-11-20T00:32:51.083Z,-4.75
2022-11-20T00:33:51.078Z,-4.68
2022-11-20T00:34:51.056Z,-4.74
2022-11-20T00:35:51.053Z,-4.69
2022-11-20T00:36:51.050Z,-4.67
2022-11-20T00:37:51.051Z,-4.67
2022-11-20T00:38:51.030Z,-4.65
2022-11-20T00:39:51.008Z,-4.58
2022-11-20T00:40:54.687Z,-4.54
2022-11-20T00:41:52.003Z,-4.57
2022-11-20T00:42:51.005Z,-4.56
2022-11-20T00:43:50.971Z,-4.43
2022-11-20T00:44:50.986Z,-4.33
2022-11-20T00:45:50.954Z,-4.40
2022-11-20T00:46:50.965Z,-4.50
2022-11-20T00:47:50.942Z,-4.46
2022-11-20T00:48:50.918Z,-4.47
2022-11-20T00:49:50.923Z,-4.29
2022-11-20T00:50:50.920Z,-4.24
2022-11-20T00:51:50.937Z,-4.29
2022-11-20T00:52:50.928Z,-4.39
2022-11-20T00:53:50.893Z,-4.25
2022-11-20T00:54:50.881Z,-4.18
2022-11-20T00:55:50.862Z,-4.12
2022-11-20T00:56:50.872Z,-4.10
2022-11-20T00:57:50.849Z,-4.03
2022-11-20T00:58:50.841Z,-3.97
2022-11-20T00:59:50.830Z,-3.96
2022-11-20T01:00:50.845Z,-4.04
2022-11-20T01:01:50.825Z,-3.96
2022-11-20T01:02:50.803Z,-4.00
2022-11-20T01:03:50.816Z,-4.11
2022-11-20T01:04:50.782Z,-4.10
2022-11-20T01:05:50.775Z,-4.10
2022-11-20T01:06:50.760Z,-4.10
2022-11-20T01:07:50.759Z,-3.99
2022-11-20T01:08:50.764Z,-3.83
2022-11-20T01:09:50.758Z,-3.93
2022-11-20T01:10:50.735Z,-3.90
2022-11-20T01:11:50.700Z,-3.82
2022-11-20T01:12:50.718Z,-3.93
2022-11-20T01:13:50.782Z,-3.93
2022-11-20T01:14:50.680Z,-4.11
2022-11-20T01:15:50.675Z,-4.21
2022-11-20T01:16:50.665Z,-4.21
2022-11-20T01:17:50.697Z,-4.24
2022-11-20T01:18:50.663Z,-4.15
2022-11-20T01:19:50.680Z,-4.24
2022-11-20T01:20:50.619Z,-4.25
2022-11-20T01:21:50.633Z,-4.22
2022-11-20T01:22:50.614Z,-4.38
2022-11-20T01:23:51.723Z,-4.33
2022-11-20T01:24:50.642Z,-4.38
2022-11-20T01:25:50.571Z,-4.40
2022-11-20T01:26:50.571Z,-4.43
2022-11-20T01:27:50.562Z,-4.33
2022-11-20T01:28:50.547Z,-4.28
2022-11-20T01:29:50.557Z,-4.21
2022-11-20T01:30:50.532Z,-4.06
2022-11-20T01:31:50.518Z,-4.00
2022-11-20T01:32:50.510Z,-3.94
2022-11-20T01:33:50.514Z,-3.83
2022-11-20T01:34:50.494Z,-3.79
2022-11-20T01:35:50.502Z,-3.64
2022-11-20T01:36:50.489Z,-3.56
2022-11-20T01:37:50.487Z,-3.63
2022-11-20T01:38:50.461Z,-3.54
2022-11-20T01:39:50.448Z,-3.46
2022-11-20T01:40:50.425Z,-3.43
2022-11-20T01:41:50.432Z,-3.42
2022-11-20T01:42:50.433Z,-3.33
2022-11-20T01:43:50.405Z,-3.36
2022-11-20T01:44:50.408Z,-3.41
2022-11-20T01:45:50.396Z,-3.28
2022-11-20T01:46:50.377Z,-3.30
2022-11-20T01:47:50.400Z,-3.41
2022-11-20T01:48:50.368Z,-3.36
2022-11-20T01:49:50.349Z,-3.38
2022-11-20T01:50:50.337Z,-3.35
2022-11-20T01:51:50.330Z,-3.25
2022-11-20T01:52:50.338Z,-3.25
2022-11-20T01:53:50.321Z,-3.24
2022-11-20T01:54:50.311Z,-3.27
2022-11-20T01:55:50.298Z,-3.10
2022-11-20T01:56:50.299Z,-3.15
2022-11-20T01:57:50.299Z,-3.07
2022-11-20T01:58:50.275Z,-3.02
2022-11-20T01:59:50.264Z,-3.07
2022-11-20T02:00:50.253Z,-3.02
2022-11-20T02:01:50.242Z,-3.09
2022-11-20T02:02:50.252Z,-3.06
2022-11-20T02:03:50.224Z,-3.00
2022-11-20T02:04:50.213Z,-2.92
2022-11-20T02:05:50.219Z,-2.85
2022-11-20T02:06:50.192Z,-2.91
2022-11-20T02:07:50.227Z,-2.89
2022-11-20T02:08:50.185Z,-2.91
2022-11-20T02:09:50.165Z,-2.84
2022-11-20T02:10:50.160Z,-2.89
2022-11-20T02:11:50.160Z,-2.82
2022-11-20T02:12:50.155Z,-2.84
2022-11-20T02:13:50.142Z,-2.79
2022-11-20T02:14:50.134Z,-2.81
2022-11-20T02:15:50.139Z,-2.88
2022-11-20T02:16:50.128Z,-2.82
2022-11-20T02:17:50.099Z,-2.96
2022-11-20T02:18:50.091Z,-2.92
2022-11-20T02:19:50.079Z,-2.81
2022-11-20T02:20:50.088Z,-2.85
2022-11-20T02:21:50.056Z,-2.88
2022-11-20T02:22:50.060Z,-2.82
2022-11-20T02:23:50.044Z,-2.89
2022-11-20T02:24:50.055Z,-2.82
2022-11-20T02:25:50.028Z,-2.85
2022-11-20T02:26:50.022Z,-2.88
2022-11-20T02:27:49.999Z,-2.81
2022-11-20T02:28:50.123Z,-2.86
2022-11-20T02:29:50.009Z,-2.85
2022-11-20T02:30:49.973Z,-2.78
2022-11-20T02:31:49.960Z,-2.77
2022-11-20T02:32:49.964Z,-2.84
2022-11-20T02:33:49.964Z,-2.88
2022-11-20T02:34:49.956Z,-2.84
2022-11-20T02:35:49.932Z,-2.71
2022-11-20T02:36:49.927Z,-2.79
2022-11-20T02:37:49.916Z,-2.52
2022-11-20T02:38:49.899Z,-2.68
2022-11-20T02:39:49.889Z,-2.55
2022-11-20T02:40:55.174Z,-2.55
2022-11-20T02:41:51.861Z,-2.60
2022-11-20T02:42:49.878Z,-2.56
2022-11-20T02:43:49.859Z,-2.50
2022-11-20T02:44:49.840Z,-2.48
2022-11-20T02:45:49.834Z,-2.52
2022-11-20T02:46:49.832Z,-2.53
2022-11-20T02:47:49.832Z,-2.43
2022-11-20T02:48:49.830Z,-2.45
2022-11-20T02:49:49.792Z,-2.34
2022-11-20T02:50:49.778Z,-2.43
2022-11-20T02:51:49.781Z,-2.49
2022-11-20T02:52:49.756Z,-2.43
2022-11-20T02:53:49.772Z,-2.30
2022-11-20T02:54:49.748Z,-2.37
2022-11-20T02:55:49.752Z,-2.35
2022-11-20T02:56:49.736Z,-2.27
2022-11-20T02:57:49.726Z,-2.39
2022-11-20T02:58:49.718Z,-2.26
2022-11-20T02:59:49.726Z,-2.35
2022-11-20T03:00:49.696Z,-2.26
2022-11-20T03:01:57.482Z,-2.30
2022-11-20T03:02:49.674Z,-2.35
2022-11-20T03:03:49.675Z,-2.39
2022-11-20T03:04:49.683Z,-2.49
2022-11-20T03:05:49.639Z,-2.52
2022-11-20T03:06:49.645Z,-2.56
2022-11-20T03:07:49.636Z,-2.55
2022-11-20T03:08:49.624Z,-2.56
2022-11-20T03:09:49.640Z,-2.74
2022-11-20T03:10:49.606Z,-2.73
2022-11-20T03:11:49.666Z,-2.81
2022-11-20T03:12:49.610Z,-2.82
2022-11-20T03:13:49.574Z,-2.85
2022-11-20T03:14:53.082Z,-3.00
2022-11-20T03:15:50.566Z,-3.03
2022-11-20T03:16:49.578Z,-2.99
2022-11-20T03:17:49.536Z,-3.10
2022-11-20T03:18:49.544Z,-3.03
2022-11-20T03:19:49.533Z,-2.96
2022-11-20T03:20:49.517Z,-2.89
2022-11-20T03:21:49.509Z,-2.88
2022-11-20T03:22:49.512Z,-2.91
2022-11-20T03:23:49.475Z,-2.88
2022-11-20T03:24:49.474Z,-2.88
2022-11-20T03:25:49.507Z,-2.84
2022-11-20T03:26:49.457Z,-2.78
2022-11-20T03:27:49.447Z,-2.84
2022-11-20T03:28:49.450Z,-2.82
2022-11-20T03:29:49.423Z,-2.77
2022-11-20T03:30:49.428Z,-2.79
2022-11-20T03:31:49.404Z,-2.74
2022-11-20T03:32:49.429Z,-2.78
2022-11-20T03:33:49.405Z,-2.79
2022-11-20T03:34:49.373Z,-2.81
2022-11-20T03:35:50.370Z,-2.92
2022-11-20T03:36:49.357Z,-2.94
2022-11-20T03:37:49.345Z,-2.94
2022-11-20T03:38:49.359Z,-2.88
2022-11-20T03:39:49.360Z,-2.91
2022-11-20T03:40:49.320Z,-2.88
2022-11-20T03:41:50.321Z,-2.81
2022-11-20T03:42:49.297Z,-2.79
2022-11-20T03:43:49.299Z,-2.78
2022-11-20T03:44:49.304Z,-2.71
2022-11-20T03:45:49.291Z,-2.73
2022-11-20T03:46:49.273Z,-2.64
2022-11-20T03:47:49.265Z,-2.63
2022-11-20T03:48:51.941Z,-2.66
2022-11-20T03:49:50.257Z,-2.60
2022-11-20T03:50:49.232Z,-2.67
2022-11-20T03:51:49.232Z,-2.73
2022-11-20T03:52:49.230Z,-2.60
2022-11-20T03:53:49.205Z,-2.70
2022-11-20T03:54:49.209Z,-2.66
2022-11-20T03:55:49.188Z,-2.63
2022-11-20T03:56:49.191Z,-2.85
2022-11-20T03:57:49.172Z,-2.92
2022-11-20T03:58:49.155Z,-3.20
2022-11-20T03:59:49.144Z,-3.25
2022-11-20T04:00:49.142Z,-3.23
2022-11-20T04:01:49.700Z,-3.09
2022-11-20T04:02:49.148Z,-3.03
2022-11-20T04:03:49.109Z,-3.05
2022-11-20T04:04:49.100Z,-3.07
2022-11-20T04:05:49.104Z,-3.03
2022-11-20T04:06:49.104Z,-3.20
2022-11-20T04:07:49.082Z,-3.21
2022-11-20T04:08:53.548Z,-3.23
2022-11-20T04:09:51.086Z,-3.03
2022-11-20T04:10:49.051Z,-3.03
2022-11-20T04:11:49.040Z,-3.09
2022-11-20T04:12:49.046Z,-3.05
2022-11-20T04:13:49.012Z,-3.00
2022-11-20T04:14:49.009Z,-3.12
2022-11-20T04:15:49.017Z,-3.17
2022-11-20T04:16:48.994Z,-3.20
2022-11-20T04:17:48.980Z,-3.09
2022-11-20T04:18:48.995Z,-3.07
2022-11-20T04:19:48.963Z,-2.92
2022-11-20T04:20:48.956Z,-2.91
2022-11-20T04:21:48.946Z,-2.92
2022-11-20T04:22:48.987Z,-2.85
2022-11-20T04:23:48.928Z,-2.85
2022-11-20T04:24:48.910Z,-2.85
2022-11-20T04:25:48.908Z,-2.84
2022-11-20T04:26:48.905Z,-2.94
2022-11-20T04:27:48.910Z,-2.88
2022-11-20T04:28:48.876Z,-2.78
2022-11-20T04:29:48.895Z,-2.70
2022-11-20T04:30:48.859Z,-2.49
2022-11-20T04:31:48.844Z,-2.50
2022-11-20T04:32:48.842Z,-2.46
2022-11-20T04:33:48.842Z,-2.43
2022-11-20T04:34:48.844Z,-2.40
2022-11-20T04:35:48.796Z,-2.30
2022-11-20T04:36:48.826Z,-2.29
2022-11-20T04:37:48.783Z,-2.21
2022-11-20T04:38:53.828Z,-2.23
2022-11-20T04:39:49.778Z,-2.24
2022-11-20T04:40:48.760Z,-2.27
2022-11-20T04:41:48.757Z,-2.18
2022-11-20T04:42:48.748Z,-2.27
2022-11-20T04:43:48.762Z,-2.23
2022-11-20T04:44:48.727Z,-2.30
2022-11-20T04:45:48.735Z,-2.18
2022-11-20T04:46:48.720Z,-2.30
2022-11-20T04:47:48.698Z,-2.32
2022-11-20T04:48:48.714Z,-2.39
2022-11-20T04:49:48.752Z,-2.40
2022-11-20T04:50:48.668Z,-2.35
2022-11-20T04:51:48.663Z,-2.34
2022-11-20T04:52:48.652Z,-2.53
2022-11-20T04:53:48.643Z,-2.49
2022-11-20T04:54:48.645Z,-2.48
2022-11-20T04:55:48.647Z,-2.39
2022-11-20T04:56:48.874Z,-2.48
2022-11-20T04:57:49.595Z,-2.29
2022-11-20T04:58:48.598Z,-2.30
2022-11-20T04:59:48.602Z,-2.23
2022-11-20T05:00:48.583Z,-2.29
2022-11-20T05:01:48.600Z,-2.30
2022-11-20T05:02:48.557Z,-2.24
2022-11-20T05:03:48.543Z,-2.24
2022-11-20T05:04:48.562Z,-2.32
2022-11-20T05:05:48.524Z,-2.23
2022-11-20T05:06:48.526Z,-2.29
2022-11-20T05:07:48.504Z,-2.24
2022-11-20T05:08:48.501Z,-2.26
2022-11-20T05:09:48.486Z,-2.34
2022-11-20T05:10:48.480Z,-2.32
2022-11-20T05:11:51.464Z,-2.30
2022-11-20T05:12:49.438Z,-2.16
2022-11-20T05:13:48.443Z,-2.26
2022-11-20T05:14:48.440Z,-2.27
2022-11-20T05:15:48.421Z,-2.09
2022-11-20T05:16:48.404Z,-2.05
2022-11-20T05:17:48.410Z,-2.06
2022-11-20T05:18:48.384Z,-2.00
2022-11-20T05:19:52.030Z,-2.10
2022-11-20T05:20:49.357Z,-2.09
2022-11-20T05:21:48.353Z,-2.06
2022-11-20T05:22:48.361Z,-2.16
2022-11-20T05:23:48.334Z,-2.24
2022-11-20T05:24:48.333Z,-2.26
2022-11-20T05:25:48.341Z,-2.09
2022-11-20T05:26:48.325Z,-2.13
2022-11-20T05:27:48.309Z,-2.10
2022-11-20T05:28:48.290Z,-2.02
2022-11-20T05:29:48.272Z,-2.18
2022-11-20T05:30:48.264Z,-2.21
2022-11-20T05:31:48.273Z,-2.27
2022-11-20T05:32:48.251Z,-2.37
2022-11-20T05:33:48.233Z,-2.42
2022-11-20T05:34:48.245Z,-2.37
2022-11-20T05:35:48.219Z,-2.48
2022-11-20T05:36:48.209Z,-2.53
2022-11-20T05:37:48.192Z,-2.56
2022-11-20T05:38:51.131Z,-2.60
2022-11-20T05:39:49.195Z,-2.74
2022-11-20T05:40:48.164Z,-2.73
2022-11-20T05:41:48.148Z,-2.73
2022-11-20T05:42:48.142Z,-2.70
2022-11-20T05:43:48.138Z,-2.66
2022-11-20T05:44:48.134Z,-2.61
2022-11-20T05:45:48.107Z,-2.50
2022-11-20T05:46:48.108Z,-2.39
2022-11-20T05:47:48.100Z,-2.37
2022-11-20T05:48:48.101Z,-2.26
2022-11-20T05:49:48.103Z,-2.20
2022-11-20T05:50:48.088Z,-2.05
2022-11-20T05:51:48.059Z,-2.10
2022-11-20T05:52:48.067Z,-2.09
2022-11-20T05:53:48.772Z,-2.06
2022-11-20T05:54:49.060Z,-2.08
2022-11-20T05:55:48.018Z,-2.23
2022-11-20T05:56:48.014Z,-2.05
2022-11-20T05:57:48.029Z,-2.10
2022-11-20T05:58:48.000Z,-1.98
2022-11-20T05:59:47.992Z,-2.02
2022-11-20T06:00:47.966Z,-1.95
2022-11-20T06:01:47.960Z,-1.95
2022-11-20T06:02:48.021Z,-1.91
2022-11-20T06:03:47.962Z,-1.84
2022-11-20T06:04:47.925Z,-1.90
2022-11-20T06:05:47.922Z,-1.88
2022-11-20T06:06:47.908Z,-1.66
2022-11-20T06:07:47.909Z,-1.74
2022-11-20T06:08:47.952Z,-1.84
2022-11-20T06:09:47.871Z,-1.80
2022-11-20T06:10:47.875Z,-1.73
2022-11-20T06:11:47.863Z,-1.79
2022-11-20T06:12:47.855Z,-1.88
2022-11-20T06:13:47.867Z,-1.91
2022-11-20T06:14:47.848Z,-1.91
2022-11-20T06:15:47.821Z,-1.98
2022-11-20T06:16:47.817Z,-1.90
2022-11-20T06:17:47.854Z,-1.98
2022-11-20T06:18:47.819Z,-1.91
2022-11-20T06:19:47.797Z,-1.98
2022-11-20T06:20:47.780Z,-2.03
2022-11-20T06:21:47.779Z,-2.10
2022-11-20T06:22:47.785Z,-2.16
2022-11-20T06:23:47.759Z,-2.20
2022-11-20T06:24:47.759Z,-2.29
2022-11-20T06:25:47.724Z,-2.12
2022-11-20T06:26:47.722Z,-2.12
2022-11-20T06:27:47.720Z,-2.13
2022-11-20T06:28:47.704Z,-2.20
2022-11-20T06:29:47.724Z,-2.15
2022-11-20T06:30:47.712Z,-2.29
2022-11-20T06:31:47.673Z,-2.30
2022-11-20T06:32:47.667Z,-2.21
2022-11-20T06:33:47.664Z,-2.27
2022-11-20T06:34:47.638Z,-2.29
2022-11-20T06:35:47.644Z,-2.20
2022-11-20T06:36:47.620Z,-2.24
2022-11-20T06:37:47.620Z,-2.24
2022-11-20T06:38:47.601Z,-2.10
2022-11-20T06:39:47.592Z,-2.12
2022-11-20T06:40:47.598Z,-2.06
2022-11-20T06:41:47.629Z,-2.13
2022-11-20T06:42:47.571Z,-2.15
2022-11-20T06:43:47.554Z,-2.24
2022-11-20T06:44:47.567Z,-2.15
2022-11-20T06:45:47.562Z,-2.16
2022-11-20T06:46:47.555Z,-2.09
2022-11-20T06:47:47.507Z,-2.29
2022-11-20T06:48:47.518Z,-2.27
2022-11-20T06:49:47.501Z,-2.26
2022-11-20T06:50:47.501Z,-2.29
2022-11-20T06:51:47.502Z,-2.29
2022-11-20T06:52:47.469Z,-2.23
2022-11-20T06:53:47.461Z,-2.13
2022-11-20T06:54:47.444Z,-2.06
2022-11-20T06:55:47.433Z,-1.98
2022-11-20T06:56:47.445Z,-1.88
2022-11-20T06:57:49.769Z,-1.74
2022-11-20T06:58:48.438Z,-1.74
2022-11-20T06:59:47.408Z,-1.67
2022-11-20T07:00:47.491Z,-1.67
2022-11-20T07:01:47.382Z,-1.64
2022-11-20T07:02:47.370Z,-1.70
2022-11-20T07:03:52.852Z,-1.55
2022-11-20T07:04:49.366Z,-1.59
2022-11-20T07:05:47.345Z,-1.51
2022-11-20T07:06:47.385Z,-1.45
2022-11-20T07:07:47.318Z,-1.28
2022-11-20T07:08:47.325Z,-1.41
2022-11-20T07:09:47.380Z,-1.52
2022-11-20T07:10:47.300Z,-1.38
2022-11-20T07:11:47.313Z,-1.38
2022-11-20T07:12:47.275Z,-1.43
2022-11-20T07:13:47.268Z,-1.35
2022-11-20T07:14:47.249Z,-1.40
2022-11-20T07:15:47.254Z,-1.46
2022-11-20T07:16:47.234Z,-1.46
2022-11-20T07:17:47.265Z,-1.34
2022-11-20T07:18:50.541Z,-1.33
2022-11-20T07:19:48.213Z,-1.34
2022-11-20T07:20:47.194Z,-1.46
2022-11-20T07:21:47.192Z,-1.38
2022-11-20T07:22:47.190Z,-1.51
2022-11-20T07:23:47.163Z,-1.45
2022-11-20T07:24:47.155Z,-1.45
2022-11-20T07:25:47.173Z,-1.52
2022-11-20T07:26:47.145Z,-1.37
2022-11-20T07:27:47.117Z,-1.37
2022-11-20T07:28:48.145Z,-1.30
2022-11-20T07:29:47.104Z,-1.38
2022-11-20T07:30:47.118Z,-1.35
2022-11-20T07:31:47.124Z,-1.37
2022-11-20T07:32:47.077Z,-1.37
2022-11-20T07:33:47.085Z,-1.33
2022-11-20T07:34:47.088Z,-1.33
2022-11-20T07:35:47.069Z,-1.19
2022-11-20T07:36:47.051Z,-1.16
2022-11-20T07:37:47.045Z,-1.16
2022-11-20T07:38:47.020Z,-1.17
2022-11-20T07:39:47.029Z,-1.07
2022-11-20T07:40:47.020Z,-1.07
2022-11-20T07:41:46.992Z,-1.15
2022-11-20T07:42:46.984Z,-1.01
2022-11-20T07:43:47.010Z,-0.94
2022-11-20T07:44:46.954Z,-0.83
2022-11-20T07:45:46.936Z,-0.82
2022-11-20T07:46:47.945Z,-0.76
2022-11-20T07:47:46.925Z,-0.69
2022-11-20T07:48:46.987Z,-0.60
2022-11-20T07:49:46.921Z,-0.62
2022-11-20T07:50:46.899Z,-0.58
2022-11-20T07:51:50.171Z,-0.57
2022-11-20T07:52:47.878Z,-0.47
2022-11-20T07:53:46.867Z,-0.60
2022-11-20T07:54:46.877Z,-0.55
2022-11-20T07:55:46.847Z,-0.47
2022-11-20T07:56:46.838Z,-0.51
2022-11-20T07:57:46.833Z,-0.40
2022-11-20T07:58:46.852Z,-0.39
2022-11-20T07:59:46.818Z,-0.29
2022-11-20T08:00:46.873Z,-0.52
2022-11-20T08:01:46.801Z,-0.36
2022-11-20T08:02:46.781Z,-0.40
2022-11-20T08:03:46.806Z,-0.29
2022-11-20T08:04:46.775Z,-0.37
2022-11-20T08:05:46.761Z,-0.29
2022-11-20T08:06:46.759Z,-0.19
2022-11-20T08:07:46.833Z,-0.23
2022-11-20T08:08:46.741Z,-0.25
2022-11-20T08:09:46.751Z,-0.11
2022-11-20T08:10:46.717Z,-0.18
2022-11-20T08:11:46.708Z,-0.15
2022-11-20T08:12:46.705Z,-0.18
2022-11-20T08:13:46.684Z,-0.16
2022-11-20T08:14:46.684Z,-0.14
2022-11-20T08:15:46.667Z,-0.10
2022-11-20T08:16:46.658Z,-0.07
2022-11-20T08:18:08.222Z,-0.07
2022-11-20T08:18:48.631Z,-0.10
2022-11-20T08:19:46.625Z,0.02
2022-11-20T08:20:46.626Z,-0.05
2022-11-20T08:21:46.625Z,0.10
2022-11-20T08:22:46.600Z,-0.01
2022-11-20T08:23:46.593Z,0.15
2022-11-20T08:24:46.571Z,0.13
2022-11-20T08:25:46.574Z,0.00
2022-11-20T08:26:46.562Z,0.15
2022-11-20T08:27:46.552Z,0.10
2022-11-20T08:28:46.537Z,0.03
2022-11-20T08:29:46.530Z,0.07
2022-11-20T08:30:46.508Z,0.07
2022-11-20T08:31:46.522Z,0.03
2022-11-20T08:32:46.495Z,0.00
2022-11-20T08:33:46.478Z,-0.01
2022-11-20T08:34:46.511Z,-0.05
2022-11-20T08:35:46.496Z,-0.22
2022-11-20T08:36:46.461Z,-0.07
2022-11-20T08:37:46.448Z,-0.14
2022-11-20T08:38:46.448Z,-0.11
2022-11-20T08:39:46.445Z,-0.16
2022-11-20T08:40:46.418Z,-0.01
2022-11-20T08:41:46.438Z,-0.04
2022-11-20T08:42:46.406Z,0.00
2022-11-20T08:43:46.403Z,0.21
2022-11-20T08:44:46.388Z,0.24
2022-11-20T08:45:46.375Z,0.24
2022-11-20T08:46:46.380Z,0.21
2022-11-20T08:47:46.342Z,0.26
2022-11-20T08:48:46.356Z,0.18
2022-11-20T08:49:46.332Z,-0.01
2022-11-20T08:50:46.317Z,0.02
2022-11-20T08:51:46.336Z,0.10
2022-11-20T08:52:46.311Z,0.08
2022-11-20T08:53:46.292Z,0.02
2022-11-20T08:54:46.279Z,-0.01
2022-11-20T08:55:46.282Z,0.00
2022-11-20T08:56:46.279Z,-0.10
2022-11-20T08:57:50.607Z,-0.04
2022-11-20T08:59:16.478Z,0.00
2022-11-20T09:00:05.587Z,-0.07
2022-11-20T09:00:48.259Z,-0.07
2022-11-20T09:01:46.217Z,0.04
2022-11-20T09:03:18.148Z,0.00
2022-11-20T09:03:46.216Z,-0.14
2022-11-20T09:04:46.200Z,-0.04
2022-11-20T09:05:46.192Z,-0.04
2022-11-20T09:06:46.168Z,0.02
2022-11-20T09:07:46.164Z,0.00
2022-11-20T09:08:46.175Z,0.08
2022-11-20T09:09:46.409Z,-0.05
2022-11-20T09:10:47.133Z,-0.04
2022-11-20T09:11:46.126Z,0.03
2022-11-20T09:12:46.222Z,-0.01
2022-11-20T09:13:46.126Z,0.04
2022-11-20T09:14:48.726Z,-0.04
2022-11-20T09:15:46.164Z,-0.04
2022-11-20T09:16:46.086Z,-0.03
2022-11-20T09:17:46.086Z,0.03
2022-11-20T09:18:46.131Z,-0.03
2022-11-20T09:19:46.568Z,-0.08
2022-11-20T09:20:46.082Z,-0.01
2022-11-20T09:21:46.081Z,-0.03
2022-11-20T09:22:46.009Z,-0.08
2022-11-20T09:23:46.128Z,-0.04
2022-11-20T09:24:46.036Z,0.02
2022-11-20T09:25:45.985Z,-0.07
2022-11-20T09:26:45.976Z,-0.05
2022-11-20T09:27:45.959Z,-0.22
2022-11-20T09:28:45.938Z,-0.10
2022-11-20T09:29:45.970Z,-0.07
2022-11-20T09:30:45.929Z,-0.04
2022-11-20T09:31:45.907Z,-0.15
2022-11-20T09:32:45.914Z,-0.10
2022-11-20T09:33:45.901Z,-0.04
2022-11-20T09:34:45.910Z,-0.14
2022-11-20T09:35:45.889Z,-0.14
2022-11-20T09:36:45.864Z,-0.05
2022-11-20T09:37:45.874Z,0.07
2022-11-20T09:38:45.850Z,0.04
2022-11-20T09:39:45.849Z,0.10
2022-11-20T09:40:45.868Z,0.15
2022-11-20T09:41:45.815Z,0.11
2022-11-20T09:42:45.808Z,0.28
2022-11-20T09:43:45.833Z,0.13
2022-11-20T09:44:45.804Z,0.11
2022-11-20T09:45:45.817Z,0.00
2022-11-20T09:46:45.781Z,0.04
2022-11-20T09:47:45.778Z,-0.15
2022-11-20T09:48:45.773Z,-0.14
2022-11-20T09:49:45.743Z,-0.10
2022-11-20T09:50:45.735Z,0.00
2022-11-20T09:51:45.731Z,-0.03
2022-11-20T09:52:45.864Z,0.00
2022-11-20T09:53:45.780Z,-0.03
2022-11-20T09:54:45.775Z,-0.05
2022-11-20T09:55:45.677Z,-0.01
2022-11-20T09:56:45.664Z,-0.07
2022-11-20T09:57:45.737Z,-0.01
2022-11-20T09:58:45.668Z,-0.03
2022-11-20T09:59:45.643Z,-0.01
2022-11-20T10:00:45.677Z,0.15
2022-11-20T10:01:45.623Z,0.18
2022-11-20T10:02:45.634Z,0.21
2022-11-20T10:03:45.661Z,0.41
2022-11-20T10:04:45.595Z,0.31
2022-11-20T10:05:45.582Z,0.46
2022-11-20T10:06:46.072Z,0.39
2022-11-20T10:07:45.583Z,0.39
2022-11-20T10:08:45.571Z,0.58
2022-11-20T10:09:45.566Z,0.60
2022-11-20T10:10:49.445Z,0.65
2022-11-20T10:11:47.520Z,0.62
2022-11-20T10:12:45.513Z,0.62
2022-11-20T10:13:45.506Z,0.69
2022-11-20T10:14:45.577Z,0.80
2022-11-20T10:15:45.473Z,0.87
2022-11-20T10:16:45.478Z,0.83
2022-11-20T10:17:45.465Z,0.98
2022-11-20T10:18:45.445Z,1.09
2022-11-20T10:19:45.446Z,1.12
2022-11-20T10:20:45.456Z,1.08
2022-11-20T10:21:45.418Z,1.05
2022-11-20T10:22:45.408Z,1.11
2022-11-20T10:23:45.404Z,1.06
2022-11-20T10:24:45.406Z,1.11
2022-11-20T10:25:45.453Z,1.00
2022-11-20T10:26:45.387Z,1.11
2022-11-20T10:27:45.369Z,1.29
2022-11-20T10:28:52.629Z,1.18
2022-11-20T10:29:47.345Z,1.32
2022-11-20T10:30:45.330Z,1.24
2022-11-20T10:31:45.342Z,1.32
2022-11-20T10:32:45.346Z,1.40
2022-11-20T10:34:10.683Z,1.50
2022-11-20T10:34:47.316Z,1.66
2022-11-20T10:35:45.310Z,1.65
2022-11-20T10:36:45.295Z,1.62
2022-11-20T10:37:45.280Z,1.69
2022-11-20T10:38:45.289Z,1.60
2022-11-20T10:39:45.247Z,1.55
2022-11-20T10:40:45.290Z,1.51
2022-11-20T10:41:45.256Z,1.65
2022-11-20T10:42:45.253Z,1.77
2022-11-20T10:43:45.207Z,1.77
2022-11-20T10:44:45.217Z,1.84
2022-11-20T10:45:45.185Z,1.81
2022-11-20T10:46:45.183Z,1.81
2022-11-20T10:47:45.179Z,1.84
2022-11-20T10:48:45.165Z,1.95
2022-11-20T10:49:45.172Z,1.91
2022-11-20T10:50:45.161Z,1.93
2022-11-20T10:51:45.129Z,2.05
2022-11-20T10:52:45.156Z,1.90
2022-11-20T10:53:45.111Z,2.03
2022-11-20T10:54:45.111Z,1.84
2022-11-20T10:55:46.095Z,1.87
2022-11-20T10:56:49.655Z,1.81
2022-11-20T10:57:47.085Z,1.80
2022-11-20T10:58:45.063Z,1.73
2022-11-20T10:59:45.062Z,1.84
2022-11-20T11:00:45.119Z,1.77
2022-11-20T11:01:45.042Z,1.81
2022-11-20T11:02:45.036Z,1.73
2022-11-20T11:03:45.021Z,1.72
2022-11-20T11:04:45.015Z,1.73
2022-11-20T11:05:45.024Z,1.99
2022-11-20T11:06:44.992Z,1.83
2022-11-20T11:07:45.055Z,1.84
2022-11-20T11:08:44.970Z,2.02
2022-11-20T11:09:44.970Z,2.02
2022-11-20T11:10:44.976Z,1.99
2022-11-20T11:11:44.950Z,2.03
2022-11-20T11:12:44.934Z,1.99
2022-11-20T11:13:44.923Z,1.93
2022-11-20T11:14:44.922Z,1.91
2022-11-20T11:15:44.929Z,1.98
2022-11-20T11:16:44.897Z,1.98
2022-11-20T11:17:44.879Z,1.95
2022-11-20T11:18:44.871Z,2.06
2022-11-20T11:19:45.847Z,2.02
2022-11-20T11:20:44.859Z,2.02
2022-11-20T11:21:44.861Z,2.03
2022-11-20T11:22:44.833Z,2.09
2022-11-20T11:23:44.835Z,2.18
2022-11-20T11:24:44.803Z,2.21
2022-11-20T11:25:44.810Z,2.24
2022-11-20T11:26:44.823Z,2.23
2022-11-20T11:27:44.784Z,2.24
2022-11-20T11:28:44.785Z,2.28
2022-11-20T11:29:44.753Z,2.24
2022-11-20T11:30:44.761Z,2.21
2022-11-20T11:31:44.746Z,2.30
2022-11-20T11:32:44.771Z,2.34
2022-11-20T11:33:44.724Z,2.43
2022-11-20T11:34:44.711Z,2.45
2022-11-20T11:35:48.258Z,2.45
2022-11-20T11:36:46.697Z,2.48
2022-11-20T11:37:44.714Z,2.61
2022-11-20T11:38:44.690Z,2.60
2022-11-20T11:39:44.661Z,2.61
2022-11-20T11:40:44.669Z,2.60
2022-11-20T11:41:44.673Z,2.56
2022-11-20T11:42:44.642Z,2.56
2022-11-20T11:43:44.624Z,2.57
2022-11-20T11:44:44.626Z,2.53
2022-11-20T11:45:44.611Z,2.64
2022-11-20T11:46:44.619Z,2.60
2022-11-20T11:47:44.590Z,2.67
2022-11-20T11:48:49.587Z,2.74
2022-11-20T11:49:46.602Z,2.84
2022-11-20T11:50:44.570Z,2.92
2022-11-20T11:51:44.551Z,2.95
2022-11-20T11:52:44.552Z,2.99
2022-11-20T11:53:44.546Z,2.96
2022-11-20T11:54:44.549Z,3.03
2022-11-20T11:55:44.514Z,3.08
2022-11-20T11:56:44.507Z,2.99
2022-11-20T11:57:44.510Z,3.13
2022-11-20T11:58:44.496Z,3.14
2022-11-20T11:59:44.491Z,3.15
2022-11-20T12:00:44.464Z,3.21
2022-11-20T12:01:44.456Z,3.32
2022-11-20T12:02:44.437Z,3.29
2022-11-20T12:03:44.435Z,3.33
2022-11-20T12:04:44.466Z,3.33
2022-11-20T12:05:44.414Z,3.35
2022-11-20T12:06:44.443Z,3.33
2022-11-20T12:07:47.359Z,3.40
2022-11-20T12:08:45.406Z,3.35
2022-11-20T12:09:44.392Z,3.39
2022-11-20T12:10:44.379Z,3.39
2022-11-20T12:11:44.360Z,3.42
2022-11-20T12:12:44.364Z,3.42
2022-11-20T12:13:44.356Z,3.36
2022-11-20T12:14:44.332Z,3.43
2022-11-20T12:15:44.345Z,3.42
2022-11-20T12:16:44.307Z,3.35
2022-11-20T12:17:44.307Z,3.28
2022-11-20T12:18:44.293Z,3.31
2022-11-20T12:19:44.289Z,3.26
2022-11-20T12:20:44.319Z,3.39
2022-11-20T12:21:44.276Z,3.29
2022-11-20T12:22:44.255Z,3.33
2022-11-20T12:23:44.244Z,3.29
2022-11-20T12:24:44.261Z,3.32
2022-11-20T12:25:44.238Z,3.21
2022-11-20T12:26:44.234Z,3.21
2022-11-20T12:27:44.228Z,3.17
2022-11-20T12:28:44.204Z,3.05
2022-11-20T12:29:44.215Z,3.11
2022-11-20T12:30:44.179Z,2.99
2022-11-20T12:31:44.209Z,3.05
2022-11-20T12:32:44.209Z,2.92
2022-11-20T12:33:44.168Z,2.96
2022-11-20T12:34:44.139Z,2.85
2022-11-20T12:35:44.141Z,3.06
2022-11-20T12:36:44.123Z,3.13
2022-11-20T12:37:44.111Z,3.15
2022-11-20T12:38:44.152Z,3.21
2022-11-20T12:39:44.082Z,3.11
2022-11-20T12:40:44.082Z,3.05
2022-11-20T12:41:44.078Z,3.11
2022-11-20T12:42:44.052Z,2.97
2022-11-20T12:43:44.060Z,3.03
2022-11-20T12:44:44.049Z,2.92
2022-11-20T12:45:44.023Z,2.92
2022-11-20T12:46:44.049Z,2.93
2022-11-20T12:47:44.005Z,2.93
2022-11-20T12:48:46.507Z,2.96
2022-11-20T12:49:44.988Z,2.93
2022-11-20T12:51:07.992Z,2.87
2022-11-20T12:51:44.972Z,2.67
2022-11-20T12:52:43.972Z,2.60
2022-11-20T12:53:43.949Z,2.57
2022-11-20T12:54:43.958Z,2.39
2022-11-20T12:55:43.941Z,2.43
2022-11-20T12:56:43.917Z,2.41
2022-11-20T12:57:43.914Z,2.38
2022-11-20T12:58:43.931Z,2.25
2022-11-20T12:59:43.923Z,2.28
2022-11-20T13:00:43.878Z,2.21